createdAt,value
2023-04-20T00:01:24.882Z,4.47
2023-04-20T00:03:51.972Z,2.35
2023-04-20T00:06:18.808Z,5.30
2023-04-20T00:08:45.533Z,3.95
2023-04-20T00:11:12.196Z,4.43
2023-04-20T00:13:39.111Z,3.35
2023-04-20T00:16:06.312Z,3.90
2023-04-20T00:18:33.015Z,3.95
2023-04-20T00:20:59.751Z,4.75
2023-04-20T00:23:26.831Z,4.15
2023-04-20T00:25:54.483Z,6.22
2023-04-20T00:28:21.112Z,3.50
2023-04-20T00:30:50.810Z,4.72
2023-04-20T00:33:17.486Z,4.75
2023-04-20T00:35:44.297Z,3.72
2023-04-20T00:38:10.892Z,4.05
2023-04-20T00:40:37.596Z,5.03
2023-04-20T00:43:13.868Z,3.92
2023-04-20T00:45:41.281Z,4.95
2023-04-20T00:48:09.904Z,4.00
2023-04-20T00:50:38.139Z,3.95
2023-04-20T00:53:10.829Z,3.63
2023-04-20T00:55:38.809Z,3.10
2023-04-20T00:58:06.718Z,4.10
2023-04-20T01:00:34.748Z,5.38
2023-04-20T01:03:01.837Z,5.13
2023-04-20T01:05:28.887Z,3.85
2023-04-20T01:07:55.853Z,5.55
2023-04-20T01:10:22.463Z,4.80
2023-04-20T01:12:49.204Z,4.18
2023-04-20T01:15:16.026Z,4.50
2023-04-20T01:17:43.679Z,15.63
2023-04-20T01:22:46.382Z,4.82
2023-04-20T01:25:13.324Z,4.60
2023-04-20T01:27:40.327Z,5.70
2023-04-20T01:30:07.932Z,5.57
2023-04-20T01:32:37.695Z,5.20
2023-04-20T01:35:05.559Z,3.78
2023-04-20T01:37:32.934Z,5.35
2023-04-20T01:40:03.782Z,4.15
2023-04-20T01:42:30.724Z,6.10
2023-04-20T01:44:57.348Z,5.05
2023-04-20T01:47:24.257Z,4.65
2023-04-20T01:49:51.179Z,4.88
2023-04-20T01:52:27.248Z,3.92
2023-04-20T01:54:53.945Z,4.35
2023-04-20T01:57:20.621Z,4.13
2023-04-20T01:59:47.418Z,5.22
2023-04-20T02:02:14.501Z,6.03
2023-04-20T02:04:41.358Z,4.20
2023-04-20T02:07:08.048Z,3.55
2023-04-20T02:09:38.466Z,5.70
2023-04-20T02:12:05.608Z,6.30
2023-04-20T02:14:32.749Z,4.22
2023-04-20T02:16:59.488Z,3.92
2023-04-20T02:19:28.918Z,5.68
2023-04-20T02:21:55.744Z,5.53
2023-04-20T02:24:22.641Z,5.68
2023-04-20T02:26:49.480Z,4.85
2023-04-20T02:29:16.684Z,3.97
2023-04-20T02:31:43.752Z,6.75
2023-04-20T02:34:10.769Z,4.07
2023-04-20T02:36:37.582Z,4.22
2023-04-20T02:39:05.802Z,5.47
2023-04-20T02:41:33.937Z,4.32
2023-04-20T02:44:02.520Z,4.60
2023-04-20T02:46:30.368Z,5.05
2023-04-20T02:48:57.398Z,5.75
2023-04-20T02:51:28.285Z,4.07
2023-04-20T02:53:55.790Z,5.82
2023-04-20T02:56:26.998Z,5.32
2023-04-20T02:58:56.131Z,6.60
2023-04-20T03:01:28.066Z,4.28
2023-04-20T03:04:04.730Z,6.10
2023-04-20T03:06:38.529Z,5.50
2023-04-20T03:09:08.910Z,4.20
2023-04-20T03:11:55.983Z,4.47
2023-04-20T03:14:47.404Z,5.78
2023-04-20T03:17:15.519Z,5.32
2023-04-20T03:19:42.461Z,3.60
2023-04-20T03:22:09.177Z,5.22
2023-04-20T03:24:36.828Z,5.03
2023-04-20T03:27:13.060Z,4.35
2023-04-20T03:29:50.754Z,5.03
2023-04-20T03:32:18.049Z,6.20
2023-04-20T03:34:44.658Z,3.78
2023-04-20T03:37:15.580Z,5.07
2023-04-20T03:39:42.222Z,3.08
2023-04-20T03:42:09.116Z,2.95
2023-04-20T03:44:41.316Z,4.07
2023-04-20T03:47:10.994Z,3.65
2023-04-20T03:49:38.613Z,5.03
2023-04-20T03:52:05.655Z,6.95
2023-04-20T03:54:32.841Z,4.03
2023-04-20T03:57:00.289Z,4.47
2023-04-20T03:59:28.229Z,5.32
2023-04-20T04:01:55.172Z,4.15
2023-04-20T04:04:22.806Z,10.27
2023-04-20T04:06:53.308Z,4.95
2023-04-20T04:09:20.092Z,5.18
2023-04-20T04:11:46.856Z,5.05
2023-04-20T04:14:14.248Z,3.50
2023-04-20T04:16:41.481Z,4.05
2023-04-20T04:19:09.742Z,5.25
2023-04-20T04:21:37.600Z,4.85
2023-04-20T04:24:07.393Z,5.57
2023-04-20T04:26:40.391Z,5.50
2023-04-20T04:29:07.415Z,6.68
2023-04-20T04:31:34.984Z,5.32
2023-04-20T04:34:08.187Z,4.90
2023-04-20T04:36:44.132Z,4.82
2023-04-20T04:39:13.703Z,5.15
2023-04-20T04:41:47.958Z,6.72
2023-04-20T04:44:37.546Z,4.30
2023-04-20T04:47:06.178Z,5.88
2023-04-20T04:49:33.250Z,8.02
2023-04-20T04:51:59.847Z,5.30
2023-04-20T04:54:26.470Z,3.90
2023-04-20T04:56:53.318Z,5.85
2023-04-20T04:59:20.259Z,4.90
2023-04-20T05:01:47.191Z,7.55
2023-04-20T05:04:14.019Z,5.45
2023-04-20T05:06:40.717Z,4.82
2023-04-20T05:09:07.435Z,5.35
2023-04-20T05:11:34.422Z,7.07
2023-04-20T05:14:02.611Z,5.68
2023-04-20T05:16:29.705Z,4.55
2023-04-20T05:18:56.690Z,4.75
2023-04-20T05:21:23.305Z,6.75
2023-04-20T05:23:50.385Z,4.78
2023-04-20T05:26:17.358Z,6.18
2023-04-20T05:28:43.925Z,8.93
2023-04-20T05:31:13.157Z,3.28
2023-04-20T05:33:40.052Z,7.30
2023-04-20T05:36:10.274Z,5.20
2023-04-20T05:38:36.996Z,4.95
2023-04-20T05:41:04.670Z,7.30
2023-04-20T05:43:31.398Z,7.30
2023-04-20T05:45:58.769Z,4.20
2023-04-20T05:48:29.815Z,7.40
2023-04-20T05:50:57.066Z,5.72
2023-04-20T05:53:23.753Z,4.97
2023-04-20T05:55:50.526Z,5.20
2023-04-20T05:58:17.483Z,5.55
2023-04-20T06:00:44.510Z,5.57
2023-04-20T06:03:11.553Z,6.35
2023-04-20T06:05:38.432Z,6.13
2023-04-20T06:08:05.201Z,4.43
2023-04-20T06:10:34.266Z,4.38
2023-04-20T06:13:01.245Z,5.40
2023-04-20T06:15:27.995Z,7.07
2023-04-20T06:17:54.870Z,4.60
2023-04-20T06:20:21.702Z,7.05
2023-04-20T06:22:48.994Z,6.55
2023-04-20T06:25:16.026Z,7.07
2023-04-20T06:27:43.228Z,4.78
2023-04-20T06:30:10.671Z,11.00
2023-04-20T06:32:38.013Z,4.97
2023-04-20T06:35:06.579Z,11.15
2023-04-20T06:37:35.100Z,6.07
2023-04-20T06:40:07.977Z,8.88
2023-04-20T06:42:34.876Z,7.22
2023-04-20T06:45:02.398Z,6.43
2023-04-20T06:47:31.938Z,7.68
2023-04-20T06:50:03.054Z,4.78
2023-04-20T06:52:31.292Z,6.85
2023-04-20T06:55:01.487Z,5.70
2023-04-20T06:57:28.214Z,6.10
2023-04-20T06:59:54.844Z,7.15
2023-04-20T07:02:21.631Z,5.55
2023-04-20T07:04:48.273Z,7.57
2023-04-20T07:07:15.002Z,6.78
2023-04-20T07:09:41.574Z,3.97
2023-04-20T07:12:08.458Z,4.90
2023-04-20T07:14:35.241Z,5.53
2023-04-20T07:17:01.878Z,5.07
2023-04-20T07:19:28.510Z,6.05
2023-04-20T07:21:55.167Z,6.85
2023-04-20T07:24:21.767Z,6.57
2023-04-20T07:26:48.481Z,6.00
2023-04-20T07:29:18.653Z,8.35
2023-04-20T07:31:45.615Z,7.45
2023-04-20T07:34:12.242Z,6.95
2023-04-20T07:36:39.125Z,6.90
2023-04-20T07:39:05.922Z,7.00
2023-04-20T07:41:32.555Z,6.03
2023-04-20T07:43:59.199Z,6.43
2023-04-20T07:46:28.879Z,8.82
2023-04-20T07:48:55.595Z,5.97
2023-04-20T07:51:22.229Z,6.57
2023-04-20T07:53:48.825Z,8.25
2023-04-20T07:56:15.466Z,8.50
2023-04-20T07:58:42.121Z,9.27
2023-04-20T08:01:08.796Z,6.72
2023-04-20T08:03:36.396Z,7.25
2023-04-20T08:06:03.565Z,10.30
2023-04-20T08:08:30.422Z,5.97
2023-04-20T08:10:58.675Z,6.07
2023-04-20T08:13:25.767Z,6.65
2023-04-20T08:15:52.584Z,5.20
2023-04-20T08:18:21.198Z,7.55
2023-04-20T08:20:48.148Z,6.50
2023-04-20T08:23:14.772Z,9.25
2023-04-20T08:25:41.404Z,10.18
2023-04-20T08:28:11.958Z,6.35
2023-04-20T08:30:42.213Z,8.90
2023-04-20T08:33:09.032Z,7.45
2023-04-20T08:35:35.938Z,7.90
2023-04-20T08:38:02.618Z,7.80
2023-04-20T08:40:30.747Z,7.95
2023-04-20T08:42:59.696Z,8.60
2023-04-20T08:45:26.835Z,9.82
2023-04-20T08:47:53.788Z,9.68
2023-04-20T08:50:20.800Z,8.82
2023-04-20T08:52:47.674Z,7.93
2023-04-20T08:55:18.358Z,7.28
2023-04-20T08:57:45.411Z,5.38
2023-04-20T09:00:13.986Z,6.97
2023-04-20T09:02:55.560Z,8.57
2023-04-20T09:05:30.667Z,9.50
2023-04-20T09:08:01.052Z,7.75
2023-04-20T09:10:39.637Z,8.57
2023-04-20T09:13:06.288Z,9.25
2023-04-20T09:15:33.105Z,9.82
2023-04-20T09:17:59.834Z,9.07
2023-04-20T09:20:36.129Z,8.10
2023-04-20T09:23:17.093Z,8.57
2023-04-20T09:25:46.176Z,7.90
2023-04-20T09:28:13.941Z,7.20
2023-04-20T09:30:42.713Z,6.70
2023-04-20T09:33:12.113Z,6.53
2023-04-20T09:35:40.487Z,6.20
2023-04-20T09:38:08.352Z,8.30
2023-04-20T09:40:35.750Z,8.32
2023-04-20T09:45:45.420Z,8.65
2023-04-20T09:48:15.320Z,7.72
2023-04-20T09:50:49.263Z,7.00
2023-04-20T09:53:17.927Z,8.57
2023-04-20T09:55:51.802Z,8.55
2023-04-20T09:58:20.786Z,9.38
2023-04-20T10:00:47.879Z,6.32
2023-04-20T10:03:21.814Z,7.65
2023-04-20T10:05:49.143Z,5.75
2023-04-20T10:08:16.992Z,6.90
2023-04-20T10:10:48.278Z,8.57
2023-04-20T10:13:16.850Z,9.10
2023-04-20T10:15:43.723Z,7.13
2023-04-20T10:18:20.965Z,7.30
2023-04-20T10:20:48.088Z,10.52
2023-04-20T10:23:16.128Z,26.48
2023-04-20T10:25:45.047Z,9.45
2023-04-20T10:28:12.055Z,7.97
2023-04-20T10:30:50.999Z,7.00
2023-04-20T10:33:18.198Z,7.95
2023-04-20T10:38:28.164Z,5.93
2023-04-20T10:40:55.321Z,8.45
2023-04-20T10:43:22.620Z,5.50
2023-04-20T10:48:18.252Z,8.27
2023-04-20T10:50:46.020Z,9.13
2023-04-20T10:53:23.756Z,7.53
2023-04-20T10:56:00.541Z,9.23
2023-04-20T10:58:27.515Z,10.32
2023-04-20T11:01:02.103Z,8.73
2023-04-20T11:03:31.247Z,8.60
2023-04-20T11:06:02.508Z,6.03
2023-04-20T11:08:42.407Z,7.80
2023-04-20T11:11:29.321Z,8.82
2023-04-20T11:14:09.869Z,7.50
2023-04-20T11:16:49.794Z,7.68
2023-04-20T11:19:23.242Z,7.38
2023-04-20T11:21:49.819Z,9.35
2023-04-20T11:24:22.906Z,8.05
2023-04-20T11:26:50.563Z,9.82
2023-04-20T11:29:34.685Z,8.88
2023-04-20T11:32:04.862Z,11.40
2023-04-20T11:34:32.442Z,10.27
2023-04-20T11:37:11.594Z,9.45
2023-04-20T11:39:38.442Z,8.23
2023-04-20T11:42:05.573Z,6.72
2023-04-20T11:44:32.880Z,10.48
2023-04-20T11:49:28.707Z,10.23
2023-04-20T11:51:55.712Z,7.57
2023-04-20T11:54:23.797Z,8.65
2023-04-20T11:56:50.530Z,8.23
2023-04-20T11:59:20.919Z,12.40
2023-04-20T12:01:48.275Z,8.65
2023-04-20T12:04:15.713Z,9.15
2023-04-20T12:06:42.800Z,7.90
2023-04-20T12:09:09.449Z,7.75
2023-04-20T12:11:36.185Z,13.45
2023-04-20T12:14:02.876Z,8.15
2023-04-20T12:16:29.582Z,9.45
2023-04-20T12:18:56.497Z,10.55
2023-04-20T12:21:23.183Z,8.88
2023-04-20T12:23:51.195Z,8.43
2023-04-20T12:26:17.877Z,10.77
2023-04-20T12:28:45.401Z,11.77
2023-04-20T12:31:12.425Z,12.10
2023-04-20T12:33:39.066Z,14.60
2023-04-20T12:36:06.113Z,10.18
2023-04-20T12:38:32.787Z,15.52
2023-04-20T12:40:59.677Z,17.55
2023-04-20T12:43:26.678Z,12.15
2023-04-20T12:45:53.238Z,12.30
2023-04-20T12:48:20.614Z,10.45
2023-04-20T12:50:47.353Z,11.07
2023-04-20T12:53:14.089Z,11.15
2023-04-20T12:55:41.091Z,11.90
2023-04-20T12:58:07.955Z,9.38
2023-04-20T13:00:34.937Z,11.43
2023-04-20T13:03:01.904Z,12.73
2023-04-20T13:05:29.103Z,12.15
2023-04-20T13:07:55.995Z,13.13
2023-04-20T13:10:22.729Z,16.00
2023-04-20T13:12:51.676Z,9.32
2023-04-20T13:15:31.682Z,16.42
2023-04-20T13:18:05.840Z,12.10
2023-04-20T13:20:32.559Z,11.52
2023-04-20T13:23:01.148Z,11.35
2023-04-20T13:25:29.949Z,11.32
2023-04-20T13:27:56.983Z,11.35
2023-04-20T13:30:24.740Z,12.52
2023-04-20T13:32:51.652Z,13.60
2023-04-20T13:35:19.006Z,11.52
2023-04-20T13:37:46.186Z,12.70
2023-04-20T13:40:16.082Z,11.82
2023-04-20T13:42:45.275Z,11.60
2023-04-20T13:45:12.711Z,11.20
2023-04-20T13:47:40.146Z,28.17
2023-04-20T13:52:34.370Z,13.70
2023-04-20T13:55:01.078Z,10.65
2023-04-20T13:57:27.689Z,9.68
2023-04-20T13:59:54.256Z,12.80
2023-04-20T14:02:21.777Z,11.15
2023-04-20T14:04:48.665Z,9.05
2023-04-20T14:07:15.423Z,12.20
2023-04-20T14:09:44.137Z,10.50
2023-04-20T14:12:11.580Z,12.07
2023-04-20T14:17:04.814Z,11.25
2023-04-20T14:19:32.709Z,11.02
2023-04-20T14:21:59.504Z,9.82
2023-04-20T14:24:26.508Z,9.18
2023-04-20T14:26:54.066Z,8.82
2023-04-20T14:31:47.521Z,7.68
2023-04-20T14:34:14.340Z,8.82
2023-04-20T14:36:41.180Z,9.63
2023-04-20T14:39:08.061Z,8.23
2023-04-20T14:41:34.900Z,9.35
2023-04-20T14:44:01.682Z,12.27
2023-04-20T14:46:28.349Z,10.32
2023-04-20T14:48:55.165Z,9.05
2023-04-20T14:51:21.744Z,10.35
2023-04-20T14:53:48.390Z,8.82
2023-04-20T14:56:16.787Z,10.95
2023-04-20T14:58:43.495Z,10.43
2023-04-20T15:01:11.151Z,10.25
2023-04-20T15:03:38.016Z,11.98
2023-04-20T15:06:04.871Z,8.65
2023-04-20T15:08:32.106Z,12.02
2023-04-20T15:10:58.822Z,8.00
2023-04-20T15:13:26.204Z,10.15
2023-04-20T15:15:54.966Z,7.93
2023-04-20T15:18:22.113Z,7.38
2023-04-20T15:20:51.890Z,7.60
2023-04-20T15:23:18.622Z,9.40
2023-04-20T15:25:45.280Z,8.13
2023-04-20T15:28:11.890Z,7.10
2023-04-20T15:30:38.461Z,9.15
2023-04-20T15:33:05.916Z,7.80
2023-04-20T15:35:33.438Z,8.95
2023-04-20T15:38:00.197Z,7.65
2023-04-20T15:40:27.375Z,6.70
2023-04-20T15:42:57.492Z,9.57
2023-04-20T15:45:24.854Z,10.07
2023-04-20T15:47:51.659Z,11.13
2023-04-20T15:50:18.685Z,9.30
2023-04-20T15:52:45.817Z,8.70
2023-04-20T15:55:12.458Z,7.43
2023-04-20T15:57:39.100Z,9.48
2023-04-20T16:00:07.785Z,8.57
2023-04-20T16:02:40.017Z,9.65
2023-04-20T16:05:07.579Z,8.50
2023-04-20T16:07:34.184Z,9.02
2023-04-20T16:10:02.048Z,8.63
2023-04-20T16:12:29.253Z,9.50
2023-04-20T16:14:57.082Z,6.80
2023-04-20T16:17:23.928Z,9.38
2023-04-20T16:19:50.882Z,9.63
2023-04-20T16:22:17.517Z,8.15
2023-04-20T16:24:44.550Z,8.65
2023-04-20T16:27:11.214Z,8.38
2023-04-20T16:29:38.015Z,7.40
2023-04-20T16:32:04.804Z,6.40
2023-04-20T16:34:31.664Z,9.63
2023-04-20T16:36:58.641Z,7.90
2023-04-20T16:39:25.386Z,8.27
2023-04-20T16:41:52.101Z,7.53
2023-04-20T16:44:18.901Z,8.68
2023-04-20T16:46:49.987Z,9.75
2023-04-20T16:49:17.219Z,8.57
2023-04-20T16:51:43.832Z,9.77
2023-04-20T16:54:12.661Z,10.07
2023-04-20T16:56:39.568Z,8.40
2023-04-20T16:59:06.203Z,7.80
2023-04-20T17:01:32.889Z,9.77
2023-04-20T17:03:59.830Z,5.75
2023-04-20T17:06:27.429Z,6.65
2023-04-20T17:08:57.374Z,7.32
2023-04-20T17:11:24.032Z,10.45
2023-04-20T17:13:50.648Z,7.10
2023-04-20T17:16:17.487Z,6.10
2023-04-20T17:18:44.089Z,7.47
2023-04-20T17:21:10.664Z,5.95
2023-04-20T17:23:37.265Z,5.97
2023-04-20T17:26:03.892Z,7.45
2023-04-20T17:28:30.777Z,5.28
2023-04-20T17:30:57.362Z,7.85
2023-04-20T17:33:24.062Z,6.78
2023-04-20T17:35:50.727Z,6.60
2023-04-20T17:38:17.377Z,6.30
2023-04-20T17:40:43.990Z,7.70
2023-04-20T17:43:11.097Z,5.65
2023-04-20T17:45:37.783Z,9.55
2023-04-20T17:48:05.630Z,6.32
2023-04-20T17:50:33.844Z,6.03
2023-04-20T17:53:06.384Z,7.00
2023-04-20T17:55:34.235Z,8.38
2023-04-20T17:58:01.461Z,6.50
2023-04-20T18:00:28.196Z,7.28
2023-04-20T18:02:54.938Z,7.20
2023-04-20T18:05:21.782Z,6.68
2023-04-20T18:07:48.421Z,7.53
2023-04-20T18:10:15.958Z,5.13
2023-04-20T18:12:44.851Z,6.20
2023-04-20T18:15:12.530Z,5.32
2023-04-20T18:20:06.836Z,3.33
2023-04-20T18:22:35.180Z,6.15
2023-04-20T18:25:01.835Z,5.25
2023-04-20T18:27:28.489Z,3.83
2023-04-20T18:29:59.474Z,3.42
2023-04-20T18:32:26.939Z,4.18
2023-04-20T18:34:53.801Z,6.97
2023-04-20T18:37:21.201Z,3.28
2023-04-20T18:39:48.069Z,3.03
2023-04-20T18:42:14.739Z,3.97
2023-04-20T18:44:41.421Z,3.97
2023-04-20T18:47:08.193Z,4.95
2023-04-20T18:49:35.023Z,2.42
2023-04-20T18:52:01.866Z,2.38
2023-04-20T18:54:30.536Z,3.42
2023-04-20T18:56:57.179Z,4.32
2023-04-20T18:59:24.684Z,2.53
2023-04-20T19:01:52.335Z,2.70
2023-04-20T19:06:46.297Z,2.85
2023-04-20T19:09:13.094Z,3.05
2023-04-20T19:11:39.926Z,4.15
2023-04-20T19:14:06.715Z,3.97
2023-04-20T19:16:34.112Z,3.20
2023-04-20T19:19:01.440Z,2.67
2023-04-20T19:21:28.160Z,3.80
2023-04-20T19:23:55.945Z,4.30
2023-04-20T19:26:22.982Z,3.67
2023-04-20T19:28:49.868Z,4.53
2023-04-20T19:31:16.660Z,3.22
2023-04-20T19:33:43.539Z,2.60
2023-04-20T19:36:10.285Z,3.22
2023-04-20T19:38:38.611Z,3.50
2023-04-20T19:41:06.491Z,2.80
2023-04-20T19:43:33.654Z,3.75
2023-04-20T19:46:00.573Z,3.63
2023-04-20T19:48:27.419Z,5.90
2023-04-20T19:50:56.619Z,4.07
2023-04-20T19:53:25.181Z,3.20
2023-04-20T19:55:52.303Z,3.55
2023-04-20T19:58:19.335Z,4.25
2023-04-20T20:00:46.329Z,2.83
2023-04-20T20:03:15.541Z,3.47
2023-04-20T20:05:43.953Z,2.40
2023-04-20T20:08:11.045Z,3.85
2023-04-20T20:10:37.741Z,3.05
2023-04-20T20:13:04.354Z,3.42
2023-04-20T20:15:32.266Z,2.65
2023-04-20T20:17:59.527Z,2.13
2023-04-20T20:20:30.153Z,3.47
2023-04-20T20:22:57.044Z,3.35
2023-04-20T20:25:23.918Z,3.38
2023-04-20T20:27:51.218Z,2.78
2023-04-20T20:30:18.474Z,3.22
2023-04-20T20:32:45.365Z,4.82
2023-04-20T20:35:13.030Z,3.20
2023-04-20T20:37:45.189Z,2.97
2023-04-20T20:40:14.336Z,4.15
2023-04-20T20:42:45.115Z,5.88
2023-04-20T20:45:12.821Z,3.80
2023-04-20T20:47:41.076Z,4.97
2023-04-20T20:50:09.339Z,5.85
2023-04-20T20:52:36.131Z,4.00
2023-04-20T20:55:03.234Z,3.20
2023-04-20T20:57:30.172Z,3.42
2023-04-20T20:59:56.788Z,3.42
2023-04-20T21:02:23.545Z,5.25
2023-04-20T21:04:50.288Z,3.80
2023-04-20T21:07:17.139Z,3.90
2023-04-20T21:09:43.828Z,4.75
2023-04-20T21:12:10.506Z,3.85
2023-04-20T21:14:37.286Z,4.97
2023-04-20T21:17:04.728Z,3.70
2023-04-20T21:19:31.943Z,3.63
2023-04-20T21:21:58.680Z,3.83
2023-04-20T21:24:25.325Z,4.57
2023-04-20T21:26:52.540Z,3.35
2023-04-20T21:29:19.556Z,3.50
2023-04-20T21:31:46.467Z,3.20
2023-04-20T21:34:13.219Z,3.33
2023-04-20T21:36:39.840Z,3.72
2023-04-20T21:39:06.376Z,3.45
2023-04-20T21:41:32.954Z,2.10
2023-04-20T21:44:00.555Z,5.88
2023-04-20T21:46:27.146Z,4.40
2023-04-20T21:48:53.783Z,3.70
2023-04-20T21:51:20.611Z,2.72
2023-04-20T21:53:47.164Z,4.53
2023-04-20T21:56:14.969Z,3.45
2023-04-20T21:58:41.786Z,3.25
2023-04-20T22:01:08.524Z,3.70
2023-04-20T22:03:36.606Z,3.42
2023-04-20T22:06:04.519Z,4.20
2023-04-20T22:08:31.209Z,2.50
2023-04-20T22:10:57.843Z,3.72
2023-04-20T22:13:24.655Z,2.60
2023-04-20T22:15:52.627Z,5.07
2023-04-20T22:18:19.706Z,4.18
2023-04-20T22:20:46.592Z,3.65
2023-04-20T22:23:13.268Z,3.72
2023-04-20T22:25:40.662Z,4.43
2023-04-20T22:28:07.559Z,3.15
2023-04-20T22:30:34.740Z,5.15
2023-04-20T22:33:01.425Z,4.25
2023-04-20T22:35:29.274Z,3.88
2023-04-20T22:37:56.423Z,3.42
2023-04-20T22:40:23.806Z,9.98
2023-04-20T22:42:50.980Z,3.60
2023-04-20T22:45:20.398Z,3.47
2023-04-20T22:47:47.511Z,3.17
2023-04-20T22:50:14.475Z,3.25
2023-04-20T22:52:41.682Z,3.58
2023-04-20T22:55:09.597Z,2.92
2023-04-20T23:00:07.889Z,2.60
2023-04-20T23:02:34.754Z,3.25
2023-04-20T23:05:01.462Z,3.17
2023-04-20T23:07:28.176Z,4.47
2023-04-20T23:09:56.456Z,3.55
2023-04-20T23:12:23.361Z,6.95
2023-04-20T23:14:50.860Z,5.30
2023-04-20T23:17:17.704Z,3.92
2023-04-20T23:19:44.358Z,5.65
2023-04-20T23:22:11.070Z,3.85
2023-04-20T23:24:37.787Z,3.40
2023-04-20T23:27:04.936Z,4.82
2023-04-20T23:29:33.046Z,3.85
2023-04-20T23:32:00.805Z,3.05
2023-04-20T23:34:27.555Z,4.28
2023-04-20T23:36:54.306Z,3.30
2023-04-20T23:39:21.410Z,3.33
2023-04-20T23:41:48.259Z,3.17
2023-04-20T23:44:14.989Z,2.22
2023-04-20T23:46:41.838Z,2.85
2023-04-20T23:49:08.762Z,2.20
2023-04-20T23:51:35.488Z,3.17
2023-04-20T23:54:02.381Z,1.85
2023-04-20T23:56:29.180Z,3.13
2023-04-20T23:58:55.818Z,2.92
